Americus, GA

6:02 AM EST on November 23, 2014 (GMT -0500)
RAWS AMERICUS/PLAINS GA US | Change Station
CLOSE
Current Station
Personal Weather Station
Location: Americus, GA
Elevation: 456 ft
Nearby Weather Stations

Elev 456 ft 32.11 °N, 84.18 °W | Updated 59 minutes ago

Rain
Rain
58 °F
Feels Like 58 °F
N
9
Wind Variable Wind from East
Gusts 17.0 mph

Today
High -- | Low -- °F
--% Chance of Precip.
Yesterday
High -- | Low -- °F
Precip. -- in
7:12 AM 5:33 PM
New Moon, 1% visible
Pressure 29.99 in
Visibility 7.0 miles
Clouds Overcast 500 ft
Dew Point 57 °F
Humidity 97%
Rainfall 0.89 in
Snow Depth Not available.
UV 0 out of 12
Pollen 1.40 out of 12
Air Quality Not available.
Flu Activity Not available.
METAR KACJ 231055Z AUTO 09008KT 7SM -RA OVC005 15/15 A2999 RMK AO2

More Conditions Fewer Conditions

Pressure 29.99 in
Visibility 7.0 miles
Clouds Overcast 500 ft
Dew Point 57 °F
Humidity 97%
Rainfall 0.89 in
Snow Depth Not available.
UV 0 out of 12
Pollen 1.40 out of 12
Air Quality Not available.
Flu Activity Not available.
METAR KACJ 231055Z AUTO 09008KT 7SM -RA OVC005 15/15 A2999 RMK AO2

More Conditions Fewer Conditions

10-Day Weather Forecast

Almanac

Astronomy

Nov. 23, 2014 Rise Set
Actual Time
Civil Twilight
Nautical Twilight
Astronomical Twilight
Moon
Length of Visible Light
Length of Day
Tomorrow will be .
, % of the Moon is Illuminated

Today's Extremes

State Highs State Lows

Community

WunderPhotos

Upload Photos

1,773,033 photos uploaded!

WunderBlogs® & News

Nearby

Air Quality

  Air Quality AQ Index Pollutant
Not available.

Snow Depth

Station Depth Elevation

Earthquake Activity

City Distance Mag. Time & Date
Minimum magnitude displayed is 2.5.

Coastal Water Temperatures

Place Temperature

Nearby Weather Stations